createdAt,value
2022-11-04T00:02:06.589Z,68.70
2022-11-04T00:04:33.284Z,69.91
2022-11-04T00:07:00.208Z,69.48
2022-11-04T00:09:28.701Z,69.27
2022-11-04T00:12:14.194Z,67.59
2022-11-04T00:14:40.882Z,66.75
2022-11-04T00:17:20.043Z,67.27
2022-11-04T00:20:07.458Z,67.10
2022-11-04T00:22:59.999Z,65.50
2022-11-04T00:25:45.562Z,64.89
2022-11-04T00:28:34.492Z,64.12
2022-11-04T00:31:22.470Z,64.64
2022-11-04T00:33:50.443Z,65.26
2022-11-04T00:36:17.208Z,65.16
2022-11-04T00:38:43.836Z,66.09
2022-11-04T00:41:30.051Z,65.47
2022-11-04T00:43:56.835Z,65.90
2022-11-04T00:46:23.400Z,65.53
2022-11-04T00:48:50.001Z,66.60
2022-11-04T00:51:16.677Z,67.54
2022-11-04T00:53:43.206Z,66.28
2022-11-04T00:56:09.694Z,66.86
2022-11-04T00:58:36.905Z,66.53
2022-11-04T01:01:10.554Z,65.58
2022-11-04T01:03:37.197Z,67.12
2022-11-04T01:06:03.982Z,65.29
2022-11-04T01:08:30.579Z,65.50
2022-11-04T01:10:57.311Z,65.44
2022-11-04T01:13:23.839Z,64.77
2022-11-04T01:15:50.342Z,65.20
2022-11-04T01:18:16.828Z,65.33
2022-11-04T01:20:43.267Z,64.60
2022-11-04T01:23:09.833Z,64.10
2022-11-04T01:25:40.657Z,64.87
2022-11-04T01:28:07.993Z,64.70
2022-11-04T01:30:35.281Z,63.91
2022-11-04T01:33:01.790Z,65.61
2022-11-04T01:35:28.252Z,64.41
2022-11-04T01:37:54.836Z,63.74
2022-11-04T01:40:21.306Z,65.34
2022-11-04T01:42:47.887Z,65.11
2022-11-04T01:45:16.812Z,64.15
2022-11-04T01:47:46.265Z,64.85
2022-11-04T01:50:16.258Z,63.88
2022-11-04T01:52:50.441Z,65.14
2022-11-04T01:55:22.761Z,65.09
2022-11-04T01:57:50.320Z,64.94
2022-11-04T02:00:17.110Z,65.49
2022-11-04T02:02:53.865Z,65.73
2022-11-04T02:05:21.198Z,66.42
2022-11-04T02:07:53.224Z,65.98
2022-11-04T02:10:21.351Z,65.58
2022-11-04T02:12:51.049Z,66.03
2022-11-04T02:15:39.022Z,65.83
2022-11-04T02:18:47.641Z,66.08
2022-11-04T02:21:25.368Z,66.36
2022-11-04T02:24:30.442Z,66.61
2022-11-04T02:27:27.831Z,65.32
2022-11-04T02:30:00.328Z,65.23
2022-11-04T02:33:15.516Z,64.96
2022-11-04T02:35:54.320Z,65.52
2022-11-04T02:38:30.797Z,64.89
2022-11-04T02:40:57.175Z,65.31
2022-11-04T02:43:39.614Z,64.84
2022-11-04T02:46:32.144Z,64.57
2022-11-04T02:49:07.825Z,64.64
2022-11-04T02:51:54.986Z,63.48
2022-11-04T02:54:36.519Z,64.01
2022-11-04T02:57:05.106Z,63.17
2022-11-04T03:00:16.261Z,62.56
2022-11-04T03:02:46.793Z,62.41
2022-11-04T03:05:16.391Z,62.49
2022-11-04T03:07:44.125Z,63.58
2022-11-04T03:10:30.616Z,64.96
2022-11-04T03:13:02.860Z,65.05
2022-11-04T03:15:32.041Z,64.14
2022-11-04T03:18:08.703Z,64.85
2022-11-04T03:20:36.757Z,64.24
2022-11-04T03:23:03.929Z,64.30
2022-11-04T03:25:35.379Z,64.59
2022-11-04T03:28:02.265Z,64.91
2022-11-04T03:30:36.287Z,65.00
2022-11-04T03:33:12.614Z,65.14
2022-11-04T03:35:40.553Z,65.14
2022-11-04T03:38:07.105Z,64.66
2022-11-04T03:40:34.721Z,64.18
2022-11-04T03:43:09.154Z,64.82
2022-11-04T03:45:36.019Z,64.66
2022-11-04T03:48:02.917Z,65.81
2022-11-04T03:50:35.727Z,65.99
2022-11-04T03:53:02.419Z,65.92
2022-11-04T03:55:54.122Z,65.73
2022-11-04T03:58:45.459Z,65.25
2022-11-04T04:01:36.929Z,65.18
2022-11-04T04:04:06.566Z,65.15
2022-11-04T04:06:35.908Z,64.68
2022-11-04T04:09:11.634Z,64.78
2022-11-04T04:11:47.227Z,63.81
2022-11-04T04:14:41.357Z,64.33
2022-11-04T04:17:13.872Z,63.66
2022-11-04T04:19:45.724Z,63.93
2022-11-04T04:22:22.884Z,63.68
2022-11-04T04:25:09.603Z,63.97
2022-11-04T04:27:36.405Z,62.63
2022-11-04T04:30:09.705Z,62.66
2022-11-04T04:32:39.724Z,61.92
2022-11-04T04:35:26.331Z,61.06
2022-11-04T04:37:54.777Z,60.66
2022-11-04T04:40:42.884Z,60.58
2022-11-04T04:43:33.486Z,59.79
2022-11-04T04:46:00.881Z,59.58
2022-11-04T04:48:27.361Z,59.01
2022-11-04T04:50:57.197Z,58.75
2022-11-04T04:53:23.757Z,59.05
2022-11-04T04:55:50.207Z,59.46
2022-11-04T04:58:16.768Z,58.74
2022-11-04T05:00:43.247Z,58.69
2022-11-04T05:03:10.134Z,58.39
2022-11-04T05:05:36.916Z,57.51
2022-11-04T05:08:08.257Z,59.15
2022-11-04T05:10:35.172Z,59.42
2022-11-04T05:13:20.471Z,59.14
2022-11-04T05:15:47.025Z,59.35
2022-11-04T05:18:13.509Z,58.74
2022-11-04T05:20:40.606Z,58.31
2022-11-04T05:23:08.044Z,58.49
2022-11-04T05:25:34.685Z,58.32
2022-11-04T05:28:02.057Z,58.55
2022-11-04T05:30:28.997Z,58.21
2022-11-04T05:32:59.809Z,58.09
2022-11-04T05:35:30.257Z,57.69
2022-11-04T05:37:57.181Z,57.92
2022-11-04T05:40:24.650Z,57.46
2022-11-04T05:42:51.169Z,57.21
2022-11-04T05:45:17.873Z,57.13
2022-11-04T05:47:45.115Z,56.82
2022-11-04T05:50:11.737Z,57.06
2022-11-04T05:52:38.282Z,57.08
2022-11-04T05:55:05.398Z,57.24
2022-11-04T05:57:31.899Z,57.54
2022-11-04T05:59:58.444Z,57.29
2022-11-04T06:02:26.205Z,57.40
2022-11-04T06:04:52.969Z,57.25
2022-11-04T06:07:19.451Z,57.49
2022-11-04T06:09:46.054Z,57.28
2022-11-04T06:12:17.455Z,56.95
2022-11-04T06:14:44.376Z,56.90
2022-11-04T06:17:15.259Z,57.01
2022-11-04T06:19:41.936Z,56.83
2022-11-04T06:22:11.169Z,56.69
2022-11-04T06:24:37.925Z,56.58
2022-11-04T06:27:05.025Z,56.62
2022-11-04T06:29:31.645Z,56.39
2022-11-04T06:31:58.305Z,56.07
2022-11-04T06:34:25.061Z,56.29
2022-11-04T06:36:51.717Z,56.57
2022-11-04T06:39:18.194Z,56.20
2022-11-04T06:41:47.629Z,56.37
2022-11-04T06:44:17.073Z,57.13
2022-11-04T06:46:43.905Z,56.91
2022-11-04T06:49:13.631Z,56.95
2022-11-04T06:51:40.712Z,57.01
2022-11-04T06:54:07.766Z,56.87
2022-11-04T06:56:34.323Z,57.11
2022-11-04T06:59:00.853Z,56.88
2022-11-04T07:01:29.703Z,57.18
2022-11-04T07:03:58.126Z,57.71
2022-11-04T07:06:25.667Z,57.48
2022-11-04T07:08:53.078Z,56.75
2022-11-04T07:11:21.451Z,56.43
2022-11-04T07:13:49.026Z,55.76
2022-11-04T07:16:16.372Z,56.06
2022-11-04T07:18:43.693Z,56.04
2022-11-04T07:21:11.251Z,55.76
2022-11-04T07:23:38.025Z,56.33
2022-11-04T07:26:06.743Z,56.29
2022-11-04T07:28:33.765Z,56.67
2022-11-04T07:31:02.238Z,55.86
2022-11-04T07:33:28.716Z,56.61
2022-11-04T07:35:58.208Z,56.21
2022-11-04T07:38:25.297Z,56.65
2022-11-04T07:40:51.694Z,57.60
2022-11-04T07:43:18.453Z,56.31
2022-11-04T07:45:45.005Z,55.62
2022-11-04T07:48:11.714Z,55.34
2022-11-04T07:50:40.666Z,56.44
2022-11-04T07:53:08.418Z,55.19
2022-11-04T07:55:42.068Z,54.97
2022-11-04T07:58:10.772Z,54.28
2022-11-04T08:00:37.280Z,53.56
2022-11-04T08:03:03.853Z,52.98
2022-11-04T08:05:30.521Z,52.11
2022-11-04T08:07:57.877Z,53.13
2022-11-04T08:10:24.558Z,52.25
2022-11-04T08:12:52.175Z,52.15
2022-11-04T08:15:18.697Z,51.86
2022-11-04T08:17:45.259Z,51.39
2022-11-04T08:20:13.096Z,50.82
2022-11-04T08:22:39.806Z,50.32
2022-11-04T08:25:06.717Z,51.57
2022-11-04T08:27:34.436Z,52.17
2022-11-04T08:30:00.933Z,50.88
2022-11-04T08:32:27.569Z,50.84
2022-11-04T08:34:54.024Z,50.19
2022-11-04T08:37:20.600Z,49.91
2022-11-04T08:39:47.124Z,48.84
2022-11-04T08:42:13.826Z,50.19
2022-11-04T08:44:41.075Z,49.45
2022-11-04T08:47:07.583Z,49.57
2022-11-04T08:49:38.884Z,47.01
2022-11-04T08:52:05.732Z,46.51
2022-11-04T08:54:32.243Z,47.57
2022-11-04T08:56:58.865Z,44.51
2022-11-04T08:59:25.478Z,42.53
2022-11-04T09:01:52.295Z,41.14
2022-11-04T09:04:19.823Z,39.88
2022-11-04T09:06:47.167Z,38.97
2022-11-04T09:09:15.353Z,37.69
2022-11-04T09:11:43.286Z,37.59
2022-11-04T09:14:10.506Z,36.88
2022-11-04T09:16:38.020Z,36.85
2022-11-04T09:19:04.630Z,35.18
2022-11-04T09:21:31.126Z,30.42
2022-11-04T09:23:57.654Z,27.79
2022-11-04T09:26:24.567Z,26.66
2022-11-04T09:28:58.233Z,25.60
2022-11-04T09:31:26.769Z,22.98
2022-11-04T09:33:54.920Z,20.13
2022-11-04T09:36:21.452Z,20.43
2022-11-04T09:38:47.969Z,18.93
2022-11-04T09:41:46.022Z,17.60
2022-11-04T09:44:28.204Z,18.01
2022-11-04T09:47:01.851Z,18.75
2022-11-04T09:49:32.675Z,21.50
2022-11-04T09:51:59.604Z,19.41
2022-11-04T09:54:47.097Z,17.28
2022-11-04T09:57:17.885Z,16.94
2022-11-04T09:59:44.665Z,15.45
2022-11-04T10:02:11.761Z,16.05
2022-11-04T10:04:57.091Z,16.01
2022-11-04T10:07:42.711Z,19.92
2022-11-04T10:10:37.986Z,19.13
2022-11-04T10:13:17.489Z,23.99
2022-11-04T10:16:13.254Z,28.40
2022-11-04T10:18:57.646Z,30.93
2022-11-04T10:22:04.608Z,32.64
2022-11-04T10:24:57.390Z,37.87
2022-11-04T10:27:27.430Z,38.57
2022-11-04T10:29:58.448Z,31.49
2022-11-04T10:33:00.150Z,26.27
2022-11-04T10:35:48.633Z,26.40
2022-11-04T10:38:22.844Z,22.50
2022-11-04T10:40:52.007Z,21.10
2022-11-04T10:43:33.361Z,25.00
2022-11-04T10:46:12.201Z,29.84
2022-11-04T10:48:49.663Z,33.53
2022-11-04T10:51:22.142Z,27.54
2022-11-04T10:53:55.302Z,26.15
2022-11-04T10:56:40.891Z,25.19
2022-11-04T10:59:21.545Z,25.21
2022-11-04T11:01:52.159Z,21.19
2022-11-04T11:04:33.658Z,18.89
2022-11-04T11:07:05.463Z,22.94
2022-11-04T11:09:33.728Z,25.07
2022-11-04T11:12:09.836Z,25.50
2022-11-04T11:14:44.460Z,27.77
2022-11-04T11:17:39.088Z,29.53
2022-11-04T11:20:16.778Z,32.03
2022-11-04T11:22:45.014Z,34.40
2022-11-04T11:25:25.099Z,38.55
2022-11-04T11:27:56.401Z,39.04
2022-11-04T11:30:26.176Z,38.40
2022-11-04T11:32:55.848Z,39.31
2022-11-04T11:35:26.023Z,41.90
2022-11-04T11:37:52.784Z,44.05
2022-11-04T11:40:26.965Z,43.25
2022-11-04T11:42:53.835Z,42.81
2022-11-04T11:45:21.049Z,43.54
2022-11-04T11:47:52.393Z,44.78
2022-11-04T11:50:35.685Z,44.59
2022-11-04T11:53:16.972Z,37.49
2022-11-04T11:56:09.624Z,28.86
2022-11-04T12:01:42.361Z,32.70
2022-11-04T12:10:50.516Z,37.68
2022-11-04T12:13:32.215Z,36.45
2022-11-04T12:16:17.426Z,38.34
2022-11-04T12:19:08.594Z,38.66
2022-11-04T12:22:18.634Z,39.25
2022-11-04T12:24:56.332Z,39.61
2022-11-04T12:27:33.292Z,41.63
2022-11-04T12:30:10.439Z,40.30
2022-11-04T12:32:58.293Z,39.92
2022-11-04T12:35:42.976Z,39.26
2022-11-04T12:38:26.208Z,39.19
2022-11-04T12:41:46.725Z,39.69
2022-11-04T12:44:42.294Z,40.50
2022-11-04T12:47:27.426Z,40.45
2022-11-04T12:50:15.778Z,40.62
2022-11-04T12:53:19.488Z,40.33
2022-11-04T12:56:09.659Z,41.32
2022-11-04T12:58:47.635Z,40.62
2022-11-04T13:01:22.305Z,40.14
2022-11-04T13:03:53.698Z,40.24
2022-11-04T13:06:31.106Z,39.92
2022-11-04T13:09:05.854Z,41.86
2022-11-04T13:11:49.814Z,41.11
2022-11-04T13:14:22.856Z,41.21
2022-11-04T13:16:54.330Z,41.87
2022-11-04T13:19:25.318Z,44.44
2022-11-04T13:21:53.204Z,44.03
2022-11-04T13:24:25.965Z,44.88
2022-11-04T13:26:52.571Z,44.78
2022-11-04T13:29:21.854Z,46.16
2022-11-04T13:31:51.224Z,46.56
2022-11-04T13:34:37.590Z,47.43
2022-11-04T13:37:25.299Z,46.79
2022-11-04T13:39:56.438Z,47.78
2022-11-04T13:42:41.229Z,47.46
2022-11-04T13:45:14.068Z,48.61
2022-11-04T13:47:50.554Z,48.69
2022-11-04T13:50:36.548Z,48.84
2022-11-04T13:53:09.426Z,47.89
2022-11-04T13:55:37.137Z,47.45
2022-11-04T13:58:05.468Z,48.22
2022-11-04T14:00:33.313Z,48.35
2022-11-04T14:03:01.708Z,48.74
2022-11-04T14:05:28.466Z,48.53
2022-11-04T14:08:01.241Z,49.19
2022-11-04T14:10:48.898Z,48.88
2022-11-04T14:13:31.955Z,49.96
2022-11-04T14:16:17.520Z,49.89
2022-11-04T14:18:46.270Z,49.13
2022-11-04T14:21:26.762Z,48.94
2022-11-04T14:24:00.217Z,49.37
2022-11-04T14:26:30.760Z,49.38
2022-11-04T14:29:05.132Z,48.86
2022-11-04T14:31:43.936Z,48.84
2022-11-04T14:34:25.574Z,47.84
2022-11-04T14:36:56.854Z,48.08
2022-11-04T14:39:31.266Z,48.16
2022-11-04T14:42:01.884Z,48.42
2022-11-04T14:44:34.517Z,49.12
2022-11-04T14:47:19.576Z,48.95
2022-11-04T14:50:01.143Z,48.99
2022-11-04T14:52:35.297Z,49.59
2022-11-04T14:55:14.676Z,49.54
2022-11-04T14:57:55.931Z,49.81
2022-11-04T15:00:39.778Z,49.10
2022-11-04T15:04:08.727Z,50.17
2022-11-04T15:06:10.955Z,49.43
2022-11-04T15:08:42.938Z,49.51
2022-11-04T15:11:17.709Z,49.37
2022-11-04T15:13:48.534Z,50.48
2022-11-04T15:16:21.308Z,49.59
2022-11-04T15:18:48.134Z,49.50
2022-11-04T15:21:15.208Z,48.83
2022-11-04T15:23:50.178Z,48.56
2022-11-04T15:26:30.123Z,49.39
2022-11-04T15:29:00.238Z,50.13
2022-11-04T15:31:32.505Z,50.72
2022-11-04T15:34:01.079Z,49.76
2022-11-04T15:36:39.743Z,49.20
2022-11-04T15:39:20.150Z,50.04
2022-11-04T15:42:06.510Z,50.06
2022-11-04T15:44:35.521Z,49.59
2022-11-04T15:47:22.983Z,50.72
2022-11-04T15:49:51.988Z,50.42
2022-11-04T15:52:24.048Z,51.41
2022-11-04T15:54:55.399Z,50.39
2022-11-04T15:57:32.331Z,50.42
2022-11-04T16:00:06.429Z,51.15
2022-11-04T16:02:37.683Z,50.36
2022-11-04T16:05:10.618Z,50.87
2022-11-04T16:07:39.148Z,50.63
2022-11-04T16:10:25.782Z,50.58
2022-11-04T16:13:18.322Z,50.31
2022-11-04T16:15:51.584Z,50.38
2022-11-04T16:18:35.159Z,50.21
2022-11-04T16:21:30.746Z,51.14
2022-11-04T16:24:04.803Z,51.46
2022-11-04T16:26:44.452Z,51.78
2022-11-04T16:29:21.346Z,52.13
2022-11-04T16:32:05.723Z,51.91
2022-11-04T16:34:32.208Z,50.99
2022-11-04T16:36:59.037Z,51.22
2022-11-04T16:39:25.470Z,51.08
2022-11-04T16:41:52.054Z,50.79
2022-11-04T16:44:21.610Z,51.61
2022-11-04T16:46:48.465Z,51.36
2022-11-04T16:49:16.521Z,50.96
2022-11-04T16:51:43.212Z,50.94
2022-11-04T16:54:10.309Z,51.02
2022-11-04T16:56:38.260Z,51.31
2022-11-04T16:59:05.225Z,51.28
2022-11-04T17:01:32.038Z,51.37
2022-11-04T17:03:58.595Z,50.75
2022-11-04T17:06:25.516Z,50.50
2022-11-04T17:08:53.210Z,50.56
2022-11-04T17:11:19.915Z,50.73
2022-11-04T17:13:46.405Z,50.60
2022-11-04T17:16:14.193Z,51.42
2022-11-04T17:18:41.207Z,51.04
2022-11-04T17:21:09.504Z,51.33
2022-11-04T17:23:36.073Z,51.31
2022-11-04T17:26:03.284Z,51.26
2022-11-04T17:28:31.513Z,51.80
2022-11-04T17:30:58.050Z,52.26
2022-11-04T17:33:24.672Z,51.86
2022-11-04T17:35:51.612Z,51.99
2022-11-04T17:38:18.674Z,52.12
2022-11-04T17:41:04.210Z,52.16
2022-11-04T17:43:49.930Z,52.82
2022-11-04T17:46:35.300Z,53.53
2022-11-04T17:49:03.837Z,54.95
2022-11-04T17:51:31.207Z,55.12
2022-11-04T17:53:58.009Z,54.71
2022-11-04T17:56:25.255Z,54.54
2022-11-04T17:58:52.220Z,54.23
2022-11-04T18:01:21.846Z,53.87
2022-11-04T18:03:48.427Z,54.01
2022-11-04T18:06:14.913Z,53.77
2022-11-04T18:08:41.449Z,54.09
2022-11-04T18:11:10.476Z,53.26
2022-11-04T18:13:37.328Z,53.45
2022-11-04T18:16:11.893Z,53.55
2022-11-04T18:18:38.978Z,53.34
2022-11-04T18:21:07.826Z,52.86
2022-11-04T18:23:34.657Z,53.00
2022-11-04T18:26:02.844Z,53.55
2022-11-04T18:28:29.394Z,53.56
2022-11-04T18:30:55.919Z,53.62
2022-11-04T18:33:22.408Z,53.31
2022-11-04T18:35:48.818Z,52.74
2022-11-04T18:38:15.338Z,52.68
2022-11-04T18:40:41.810Z,52.65
2022-11-04T18:43:09.261Z,53.11
2022-11-04T18:45:36.521Z,53.71
2022-11-04T18:48:03.053Z,53.98
2022-11-04T18:50:30.217Z,53.83
2022-11-04T18:52:56.668Z,52.98
2022-11-04T18:55:24.001Z,53.33
2022-11-04T18:57:54.580Z,53.59
2022-11-04T19:00:21.562Z,54.40
2022-11-04T19:02:48.284Z,54.47
2022-11-04T19:05:14.997Z,54.08
2022-11-04T19:07:42.040Z,53.83
2022-11-04T19:10:09.118Z,53.43
2022-11-04T19:12:54.516Z,54.13
2022-11-04T19:15:21.121Z,53.78
2022-11-04T19:17:47.601Z,53.65
2022-11-04T19:20:14.483Z,53.98
2022-11-04T19:22:41.243Z,54.48
2022-11-04T19:25:08.951Z,54.28
2022-11-04T19:27:35.624Z,55.77
2022-11-04T19:30:02.178Z,55.77
2022-11-04T19:32:28.717Z,54.99
2022-11-04T19:34:55.269Z,55.32
2022-11-04T19:37:21.705Z,55.30
2022-11-04T19:39:48.163Z,55.50
2022-11-04T19:42:34.285Z,55.87
2022-11-04T19:45:02.221Z,55.91
2022-11-04T19:47:28.747Z,55.41
2022-11-04T19:49:55.759Z,55.16
2022-11-04T19:52:22.637Z,55.76
2022-11-04T19:54:49.105Z,56.20
2022-11-04T19:57:16.368Z,57.28
2022-11-04T19:59:42.903Z,57.87
2022-11-04T20:02:13.057Z,58.05
2022-11-04T20:04:39.602Z,57.53
2022-11-04T20:07:06.145Z,57.87
2022-11-04T20:09:32.660Z,57.35
2022-11-04T20:12:17.927Z,57.53
2022-11-04T20:14:44.753Z,56.99
2022-11-04T20:17:11.269Z,56.43
2022-11-04T20:19:37.729Z,56.20
2022-11-04T20:22:04.207Z,56.44
2022-11-04T20:24:30.804Z,56.37
2022-11-04T20:26:57.497Z,56.24
2022-11-04T20:29:24.411Z,55.99
2022-11-04T20:31:50.899Z,55.68
2022-11-04T20:34:17.461Z,55.96
2022-11-04T20:36:44.079Z,55.55
2022-11-04T20:39:14.468Z,55.59
2022-11-04T20:41:42.067Z,55.71
2022-11-04T20:44:13.143Z,55.75
2022-11-04T20:46:40.112Z,56.92
2022-11-04T20:49:06.830Z,57.77
2022-11-04T20:51:35.969Z,58.46
2022-11-04T20:54:06.552Z,58.35
2022-11-04T20:56:35.954Z,58.15
2022-11-04T20:59:04.501Z,59.27
2022-11-04T21:01:33.640Z,59.60
2022-11-04T21:04:03.280Z,60.49
2022-11-04T21:06:30.334Z,61.09
2022-11-04T21:08:58.846Z,61.26
2022-11-04T21:11:31.548Z,62.10
2022-11-04T21:13:58.923Z,61.30
2022-11-04T21:16:25.446Z,60.70
2022-11-04T21:18:51.951Z,60.70
2022-11-04T21:21:20.441Z,61.10
2022-11-04T21:23:47.099Z,60.03
2022-11-04T21:26:24.631Z,60.35
2022-11-04T21:29:01.412Z,60.35
2022-11-04T21:31:29.866Z,60.88
2022-11-04T21:33:56.584Z,59.65
2022-11-04T21:36:23.427Z,60.58
2022-11-04T21:38:50.394Z,60.07
2022-11-04T21:41:22.175Z,59.61
2022-11-04T21:43:53.803Z,59.02
2022-11-04T21:46:20.316Z,58.52
2022-11-04T21:48:46.811Z,58.18
2022-11-04T21:51:16.309Z,58.02
2022-11-04T21:53:43.237Z,57.33
2022-11-04T21:56:15.540Z,58.01
2022-11-04T21:58:43.362Z,57.47
2022-11-04T22:01:17.242Z,57.36
2022-11-04T22:03:44.370Z,57.06
2022-11-04T22:06:13.161Z,57.31
2022-11-04T22:08:44.006Z,57.52
2022-11-04T22:11:13.753Z,58.29
2022-11-04T22:13:40.931Z,58.23
2022-11-04T22:16:16.059Z,57.85
2022-11-04T22:18:43.296Z,58.18
2022-11-04T22:21:15.594Z,58.49
2022-11-04T22:23:42.967Z,58.32
2022-11-04T22:26:24.758Z,58.33
2022-11-04T22:28:51.908Z,57.99
2022-11-04T22:31:27.631Z,57.42
2022-11-04T22:33:54.396Z,57.11
2022-11-04T22:36:21.194Z,57.10
2022-11-04T22:38:47.714Z,56.83
2022-11-04T22:41:24.387Z,56.39
2022-11-04T22:43:50.982Z,56.73
2022-11-04T22:46:23.626Z,56.77
2022-11-04T22:48:50.581Z,56.49
2022-11-04T22:51:17.317Z,57.37
2022-11-04T22:53:44.599Z,57.42
2022-11-04T22:56:13.130Z,57.80
2022-11-04T22:58:40.717Z,57.65
2022-11-04T23:01:12.620Z,57.45
2022-11-04T23:03:39.644Z,57.11
2022-11-04T23:06:07.372Z,57.75
2022-11-04T23:08:35.505Z,58.17
2022-11-04T23:11:24.911Z,58.19
2022-11-04T23:14:20.085Z,58.46
2022-11-04T23:17:08.534Z,57.65
2022-11-04T23:19:35.731Z,59.06
2022-11-04T23:22:20.986Z,58.33
2022-11-04T23:25:05.985Z,58.35
2022-11-04T23:27:56.804Z,58.21
2022-11-04T23:30:25.747Z,58.55
2022-11-04T23:33:04.385Z,57.66
2022-11-04T23:35:54.145Z,57.96
2022-11-04T23:38:20.894Z,58.57
2022-11-04T23:41:08.200Z,58.40
2022-11-04T23:43:35.432Z,59.01
2022-11-04T23:46:21.142Z,59.23
2022-11-04T23:49:06.195Z,58.89
2022-11-04T23:51:51.658Z,60.37
2022-11-04T23:54:36.869Z,61.02
2022-11-04T23:57:22.196Z,60.77
